createdAt,value
2018-02-09T00:00:38.181Z,84.51
2018-02-09T00:03:05.971Z,84.96
2018-02-09T00:05:33.666Z,84.42
2018-02-09T00:08:01.307Z,84.28
2018-02-09T00:10:29.075Z,84.36
2018-02-09T00:12:56.638Z,84.72
2018-02-09T00:15:24.193Z,84.49
2018-02-09T00:17:51.758Z,84.94
2018-02-09T00:20:19.584Z,85.37
2018-02-09T00:22:53.425Z,85.40
2018-02-09T00:25:20.989Z,85.40
2018-02-09T00:27:48.552Z,85.17
2018-02-09T00:30:16.282Z,85.29
2018-02-09T00:32:43.970Z,85.47
2018-02-09T00:35:11.684Z,84.43
2018-02-09T00:37:39.240Z,83.34
2018-02-09T00:40:06.814Z,83.69
2018-02-09T00:42:34.566Z,84.07
2018-02-09T00:45:02.129Z,83.52
2018-02-09T00:47:29.814Z,83.13
2018-02-09T00:49:57.621Z,82.87
2018-02-09T00:52:25.188Z,82.57
2018-02-09T00:54:52.749Z,82.81
2018-02-09T00:57:20.458Z,82.67
2018-02-09T00:59:48.021Z,82.67
2018-02-09T01:02:15.811Z,81.98
2018-02-09T01:04:43.405Z,82.16
2018-02-09T01:07:11.018Z,82.16
2018-02-09T01:09:38.562Z,81.93
2018-02-09T01:12:06.204Z,82.66
2018-02-09T01:14:33.766Z,82.84
2018-02-09T01:17:01.486Z,82.30
2018-02-09T01:19:29.113Z,82.00
2018-02-09T01:21:56.819Z,81.55
2018-02-09T01:24:24.534Z,81.93
2018-02-09T01:26:52.429Z,82.27
2018-02-09T01:29:19.995Z,82.48
2018-02-09T01:31:47.727Z,82.82
2018-02-09T01:34:15.285Z,83.02
2018-02-09T01:36:42.909Z,83.18
2018-02-09T01:39:10.681Z,83.61
2018-02-09T01:41:38.261Z,83.81
2018-02-09T01:44:05.840Z,84.09
2018-02-09T01:46:33.395Z,83.47
2018-02-09T01:49:00.961Z,82.90
2018-02-09T01:51:28.534Z,82.12
2018-02-09T01:53:56.289Z,81.93
2018-02-09T01:56:24.006Z,81.39
2018-02-09T01:58:51.553Z,80.99
2018-02-09T02:01:19.161Z,80.27
2018-02-09T02:03:46.721Z,79.83
2018-02-09T02:06:14.478Z,79.08
2018-02-09T02:08:42.296Z,79.28
2018-02-09T02:11:09.866Z,79.17
2018-02-09T02:13:37.406Z,79.15
2018-02-09T02:16:05.029Z,79.90
2018-02-09T02:18:32.587Z,79.86
2018-02-09T02:21:00.128Z,80.36
2018-02-09T02:23:27.658Z,80.31
2018-02-09T02:25:55.524Z,80.92
2018-02-09T02:28:23.339Z,81.79
2018-02-09T02:30:51.025Z,81.87
2018-02-09T02:33:18.878Z,82.55
2018-02-09T02:35:46.424Z,83.14
2018-02-09T02:38:13.990Z,82.54
2018-02-09T02:40:41.615Z,82.59
2018-02-09T02:43:09.177Z,82.41
2018-02-09T02:45:36.775Z,82.37
2018-02-09T02:48:04.595Z,82.90
2018-02-09T02:50:32.189Z,82.51
2018-02-09T02:52:59.777Z,82.93
2018-02-09T02:55:27.537Z,83.54
2018-02-09T02:57:55.137Z,83.47
2018-02-09T03:00:22.873Z,83.71
2018-02-09T03:02:50.442Z,83.70
2018-02-09T03:05:18.210Z,83.34
2018-02-09T03:07:45.761Z,83.14
2018-02-09T03:10:13.321Z,83.29
2018-02-09T03:12:40.877Z,83.93
2018-02-09T03:15:08.682Z,83.35
2018-02-09T03:17:36.361Z,83.04
2018-02-09T03:20:03.941Z,83.20
2018-02-09T03:22:31.501Z,83.00
2018-02-09T03:24:59.057Z,83.35
2018-02-09T03:27:26.617Z,83.65
2018-02-09T03:29:54.183Z,83.42
2018-02-09T03:32:21.746Z,83.63
2018-02-09T03:34:50.200Z,83.92
2018-02-09T03:37:17.805Z,84.42
2018-02-09T03:39:45.349Z,84.80
2018-02-09T03:42:13.049Z,84.77
2018-02-09T03:44:40.600Z,84.75
2018-02-09T03:47:08.166Z,85.25
2018-02-09T03:49:35.726Z,85.61
2018-02-09T03:52:03.615Z,86.10
2018-02-09T03:54:31.355Z,86.00
2018-02-09T03:56:59.047Z,85.38
2018-02-09T03:59:26.620Z,85.40
2018-02-09T04:01:54.425Z,85.62
2018-02-09T04:04:22.001Z,85.80
2018-02-09T04:06:49.557Z,85.18
2018-02-09T04:09:17.112Z,84.52
2018-02-09T04:11:44.673Z,84.11
2018-02-09T04:14:12.385Z,83.87
2018-02-09T04:16:39.949Z,83.64
2018-02-09T04:19:07.563Z,83.21
2018-02-09T04:21:35.562Z,82.68
2018-02-09T04:24:03.387Z,82.79
2018-02-09T04:26:31.107Z,83.09
2018-02-09T04:28:58.924Z,83.21
2018-02-09T04:31:26.535Z,83.32
2018-02-09T04:33:54.109Z,83.59
2018-02-09T04:36:21.877Z,83.71
2018-02-09T04:38:49.429Z,83.81
2018-02-09T04:41:16.989Z,83.87
2018-02-09T04:43:44.538Z,84.11
2018-02-09T04:46:12.348Z,84.33
2018-02-09T04:48:40.039Z,84.82
2018-02-09T04:51:07.755Z,84.93
2018-02-09T04:53:35.322Z,84.89
2018-02-09T04:56:02.873Z,85.20
2018-02-09T04:58:30.520Z,85.41
2018-02-09T05:00:58.085Z,85.80
2018-02-09T05:03:25.640Z,86.11
2018-02-09T05:05:53.206Z,85.72
2018-02-09T05:08:20.770Z,85.29
2018-02-09T05:10:48.530Z,84.77
2018-02-09T05:13:16.115Z,84.38
2018-02-09T05:15:43.965Z,83.21
2018-02-09T05:18:11.534Z,82.48
2018-02-09T05:20:39.086Z,82.41
2018-02-09T05:23:07.235Z,81.51
2018-02-09T05:25:34.944Z,81.69
2018-02-09T05:28:02.499Z,80.58
2018-02-09T05:30:30.061Z,80.54
2018-02-09T05:32:57.790Z,80.52
2018-02-09T05:35:25.357Z,80.66
2018-02-09T05:37:52.913Z,80.64
2018-02-09T05:40:20.644Z,79.94
2018-02-09T05:42:48.213Z,80.60
2018-02-09T05:45:15.874Z,81.22
2018-02-09T05:47:43.630Z,79.83
2018-02-09T05:50:11.193Z,79.32
2018-02-09T05:52:38.750Z,78.98
2018-02-09T05:55:06.544Z,77.54
2018-02-09T05:57:34.102Z,78.17
2018-02-09T06:00:01.781Z,78.37
2018-02-09T06:02:29.477Z,77.89
2018-02-09T06:04:57.115Z,77.59
2018-02-09T06:07:24.658Z,77.32
2018-02-09T06:09:52.241Z,76.35
2018-02-09T06:12:19.943Z,75.33
2018-02-09T06:14:47.505Z,76.30
2018-02-09T06:17:15.126Z,76.59
2018-02-09T06:19:42.693Z,74.95
2018-02-09T06:22:10.252Z,73.83
2018-02-09T06:24:37.821Z,73.50
2018-02-09T06:27:05.592Z,74.07
2018-02-09T06:29:33.162Z,73.10
2018-02-09T06:32:00.720Z,73.80
2018-02-09T06:34:28.353Z,74.27
2018-02-09T06:36:56.158Z,74.00
2018-02-09T06:39:23.713Z,72.89
2018-02-09T06:41:51.382Z,73.20
2018-02-09T06:44:19.110Z,73.22
2018-02-09T06:46:46.704Z,72.64
2018-02-09T06:49:14.435Z,72.22
2018-02-09T06:51:42.264Z,72.52
2018-02-09T06:54:10.797Z,71.79
2018-02-09T06:56:38.395Z,71.12
2018-02-09T06:59:06.100Z,70.61
2018-02-09T07:01:33.658Z,71.74
2018-02-09T07:04:01.207Z,70.62
2018-02-09T07:06:28.753Z,70.45
2018-02-09T07:08:56.594Z,71.22
2018-02-09T07:11:24.163Z,70.45
2018-02-09T07:13:51.721Z,70.93
2018-02-09T07:16:19.346Z,70.37
2018-02-09T07:18:46.958Z,70.08
2018-02-09T07:21:14.599Z,69.32
2018-02-09T07:23:42.145Z,69.11
2018-02-09T07:26:09.766Z,68.87
2018-02-09T07:28:37.494Z,69.12
2018-02-09T07:31:05.236Z,68.00
2018-02-09T07:33:32.927Z,68.53
2018-02-09T07:36:00.489Z,69.55
2018-02-09T07:38:28.099Z,67.65
2018-02-09T07:40:55.717Z,68.72
2018-02-09T07:43:23.849Z,67.54
2018-02-09T07:45:51.418Z,68.32
2018-02-09T07:48:18.976Z,68.84
2018-02-09T07:50:46.532Z,68.14
2018-02-09T07:53:14.107Z,68.37
2018-02-09T07:55:41.670Z,68.16
2018-02-09T07:58:09.329Z,68.01
2018-02-09T08:00:37.071Z,66.54
2018-02-09T08:03:04.796Z,66.58
2018-02-09T08:05:32.353Z,67.10
2018-02-09T08:08:00.124Z,67.34
2018-02-09T08:10:27.688Z,67.49
2018-02-09T08:12:55.461Z,67.70
2018-02-09T08:15:24.366Z,67.61
2018-02-09T08:17:52.149Z,67.13
2018-02-09T08:20:19.782Z,67.17
2018-02-09T08:22:47.681Z,66.78
2018-02-09T08:25:15.397Z,67.14
2018-02-09T08:27:42.953Z,67.25
2018-02-09T08:30:10.522Z,66.47
2018-02-09T08:32:38.081Z,66.41
2018-02-09T08:35:05.880Z,66.11
2018-02-09T08:37:33.596Z,65.90
2018-02-09T08:40:01.168Z,64.85
2018-02-09T08:42:28.789Z,66.22
2018-02-09T08:44:56.341Z,66.02
2018-02-09T08:47:24.171Z,64.98
2018-02-09T08:49:51.856Z,64.40
2018-02-09T08:52:19.492Z,64.57
2018-02-09T08:54:47.222Z,64.54
2018-02-09T08:57:14.941Z,64.38
2018-02-09T08:59:42.512Z,64.73
2018-02-09T09:02:10.068Z,64.82
2018-02-09T09:04:37.648Z,64.36
2018-02-09T09:07:05.214Z,65.54
2018-02-09T09:09:32.838Z,64.03
2018-02-09T09:12:00.417Z,64.56
2018-02-09T09:14:27.978Z,63.90
2018-02-09T09:16:55.539Z,63.67
2018-02-09T09:19:23.278Z,63.88
2018-02-09T09:21:50.843Z,63.96
2018-02-09T09:24:18.409Z,63.83
2018-02-09T09:26:46.259Z,63.24
2018-02-09T09:29:13.871Z,63.05
2018-02-09T09:31:41.435Z,61.64
2018-02-09T09:34:09.089Z,61.47
2018-02-09T09:36:36.827Z,61.04
2018-02-09T09:39:04.496Z,59.05
2018-02-09T09:41:32.073Z,58.02
2018-02-09T09:43:59.697Z,57.23
2018-02-09T09:46:27.394Z,55.07
2018-02-09T09:48:54.981Z,54.63
2018-02-09T09:51:22.812Z,53.76
2018-02-09T09:53:50.528Z,52.44
2018-02-09T09:56:18.089Z,51.46
2018-02-09T09:58:45.890Z,51.94
2018-02-09T10:01:19.430Z,52.65
2018-02-09T10:03:46.985Z,52.99
2018-02-09T10:06:14.550Z,53.57
2018-02-09T10:08:42.127Z,53.98
2018-02-09T10:11:09.900Z,55.76
2018-02-09T10:13:37.491Z,53.81
2018-02-09T10:16:05.059Z,54.34
2018-02-09T10:18:32.853Z,53.40
2018-02-09T10:21:00.571Z,52.27
2018-02-09T10:23:28.240Z,48.43
2018-02-09T10:25:56.010Z,45.54
2018-02-09T10:28:23.561Z,43.92
2018-02-09T10:30:51.220Z,43.22
2018-02-09T10:33:18.786Z,42.69
2018-02-09T10:35:46.509Z,43.46
2018-02-09T10:38:14.298Z,43.85
2018-02-09T10:40:41.893Z,43.43
2018-02-09T10:43:09.513Z,42.41
2018-02-09T10:45:37.257Z,43.23
2018-02-09T10:48:04.862Z,43.30
2018-02-09T10:50:32.589Z,43.13
2018-02-09T10:53:00.407Z,42.43
2018-02-09T10:55:27.954Z,42.65
2018-02-09T10:57:55.743Z,43.55
2018-02-09T11:00:28.994Z,42.10
2018-02-09T11:02:56.698Z,41.21
2018-02-09T11:05:24.518Z,40.69
2018-02-09T11:07:52.131Z,40.38
2018-02-09T11:10:25.216Z,37.79
2018-02-09T11:12:52.871Z,37.57
2018-02-09T11:15:20.686Z,37.92
2018-02-09T11:17:48.252Z,40.09
2018-02-09T11:20:15.814Z,41.00
2018-02-09T11:22:43.563Z,40.00
2018-02-09T11:25:11.124Z,40.84
2018-02-09T11:27:38.689Z,41.21
2018-02-09T11:30:06.231Z,39.16
2018-02-09T11:32:34.009Z,40.08
2018-02-09T11:35:01.752Z,41.38
2018-02-09T11:37:29.316Z,38.96
2018-02-09T11:39:56.888Z,37.94
2018-02-09T11:42:24.445Z,37.83
2018-02-09T11:44:52.006Z,37.34
2018-02-09T11:47:19.554Z,37.80
2018-02-09T11:49:47.422Z,39.39
2018-02-09T11:52:14.978Z,40.28
2018-02-09T11:54:42.695Z,38.29
2018-02-09T11:57:10.262Z,37.13
2018-02-09T11:59:37.833Z,38.05
2018-02-09T12:02:05.402Z,37.70
2018-02-09T12:04:33.073Z,38.45
2018-02-09T12:07:00.940Z,39.06
2018-02-09T12:09:28.486Z,39.19
2018-02-09T12:11:56.038Z,38.87
2018-02-09T12:14:23.843Z,38.75
2018-02-09T12:16:51.474Z,38.39
2018-02-09T12:19:19.053Z,37.95
2018-02-09T12:21:46.637Z,36.31
2018-02-09T12:24:14.250Z,36.45
2018-02-09T12:26:41.919Z,35.19
2018-02-09T12:29:09.487Z,34.99
2018-02-09T12:31:37.053Z,36.00
2018-02-09T12:34:04.621Z,36.64
2018-02-09T12:36:32.291Z,36.88
2018-02-09T12:38:59.845Z,36.79
2018-02-09T12:41:27.601Z,37.16
2018-02-09T12:43:55.312Z,35.09
2018-02-09T12:46:22.964Z,32.70
2018-02-09T12:48:50.558Z,33.66
2018-02-09T12:51:18.118Z,34.55
2018-02-09T12:53:45.686Z,33.97
2018-02-09T12:56:13.256Z,34.63
2018-02-09T12:58:40.978Z,35.74
2018-02-09T13:01:08.537Z,35.60
2018-02-09T13:03:36.270Z,34.98
2018-02-09T13:06:04.115Z,34.87
2018-02-09T13:08:31.833Z,33.99
2018-02-09T13:10:59.542Z,33.38
2018-02-09T13:13:27.106Z,35.99
2018-02-09T13:15:54.725Z,37.00
2018-02-09T13:18:34.097Z,37.92
2018-02-09T13:21:01.755Z,35.49
2018-02-09T13:23:41.002Z,34.95
2018-02-09T13:26:08.596Z,34.09
2018-02-09T13:28:47.943Z,33.40
2018-02-09T13:31:15.717Z,32.61
2018-02-09T13:33:43.537Z,33.52
2018-02-09T13:36:11.474Z,33.02
2018-02-09T13:38:39.033Z,30.47
2018-02-09T13:41:06.793Z,31.60
2018-02-09T13:43:34.353Z,32.94
2018-02-09T13:46:02.101Z,33.09
2018-02-09T13:48:29.659Z,34.84
2018-02-09T13:50:57.466Z,33.88
2018-02-09T13:53:25.042Z,33.19
2018-02-09T13:55:52.691Z,33.39
2018-02-09T13:58:20.297Z,32.70
2018-02-09T14:00:48.000Z,32.01
2018-02-09T14:03:15.534Z,30.81
2018-02-09T14:05:43.279Z,31.51
2018-02-09T14:08:10.851Z,31.39
2018-02-09T14:10:38.418Z,31.38
2018-02-09T14:13:06.225Z,31.69
2018-02-09T14:15:33.945Z,31.56
2018-02-09T14:18:01.762Z,31.38
2018-02-09T14:20:29.481Z,32.05
2018-02-09T14:22:57.055Z,31.32
2018-02-09T14:25:24.817Z,30.65
2018-02-09T14:27:52.534Z,30.56
2018-02-09T14:30:20.102Z,32.02
2018-02-09T14:32:47.658Z,31.84
2018-02-09T14:35:15.275Z,32.77
2018-02-09T14:37:42.924Z,33.16
2018-02-09T14:40:10.619Z,34.12
2018-02-09T14:42:39.151Z,34.21
2018-02-09T14:45:07.055Z,34.83
2018-02-09T14:47:34.681Z,36.07
2018-02-09T14:50:02.333Z,36.48
2018-02-09T14:52:30.109Z,36.51
2018-02-09T14:54:57.822Z,37.04
2018-02-09T14:57:25.477Z,37.22
2018-02-09T14:59:53.184Z,37.65
2018-02-09T15:02:20.889Z,38.10
2018-02-09T15:04:48.575Z,38.07
2018-02-09T15:07:16.709Z,38.99
2018-02-09T15:09:44.342Z,41.13
2018-02-09T15:12:11.943Z,44.17
2018-02-09T15:14:39.682Z,46.97
2018-02-09T15:17:07.501Z,49.45
2018-02-09T15:19:35.139Z,50.31
2018-02-09T15:22:02.777Z,51.03
2018-02-09T15:24:30.334Z,52.84
2018-02-09T15:26:58.229Z,53.87
2018-02-09T15:29:25.978Z,54.99
2018-02-09T15:31:53.802Z,55.79
2018-02-09T15:34:21.633Z,56.88
2018-02-09T15:36:49.244Z,57.82
2018-02-09T15:39:16.856Z,58.87
2018-02-09T15:41:44.429Z,59.77
2018-02-09T15:44:12.131Z,60.47
2018-02-09T15:46:39.784Z,60.94
2018-02-09T15:49:07.557Z,61.40
2018-02-09T15:51:35.146Z,61.73
2018-02-09T15:54:03.068Z,62.52
2018-02-09T15:56:31.054Z,62.96
2018-02-09T15:58:58.795Z,63.21
2018-02-09T16:01:26.621Z,63.69
2018-02-09T16:03:54.163Z,63.80
2018-02-09T16:06:21.718Z,64.07
2018-02-09T16:08:49.485Z,64.37
2018-02-09T16:11:17.303Z,64.91
2018-02-09T16:13:45.120Z,65.00
2018-02-09T16:16:12.676Z,65.40
2018-02-09T16:18:40.348Z,65.45
2018-02-09T16:21:08.075Z,65.47
2018-02-09T16:23:35.793Z,65.64
2018-02-09T16:26:03.403Z,65.82
2018-02-09T16:28:31.042Z,65.96
2018-02-09T16:30:58.956Z,66.02
2018-02-09T16:33:26.967Z,66.64
2018-02-09T16:35:54.766Z,66.54
2018-02-09T16:38:22.704Z,67.02
2018-02-09T16:40:50.262Z,67.44
2018-02-09T16:43:17.869Z,67.31
2018-02-09T16:45:45.655Z,67.10
2018-02-09T16:48:13.406Z,67.42
2018-02-09T16:50:40.980Z,67.15
2018-02-09T16:53:08.814Z,67.29
2018-02-09T16:55:36.863Z,67.04
2018-02-09T16:58:04.753Z,67.03
2018-02-09T17:00:32.531Z,67.10
2018-02-09T17:03:00.154Z,67.03
2018-02-09T17:05:27.853Z,67.08
2018-02-09T17:07:55.446Z,66.85
2018-02-09T17:10:23.009Z,67.26
2018-02-09T17:12:50.582Z,67.43
2018-02-09T17:15:18.141Z,66.97
2018-02-09T17:17:45.706Z,67.69
2018-02-09T17:20:13.269Z,67.86
2018-02-09T17:22:40.829Z,68.14
2018-02-09T17:25:08.438Z,68.18
2018-02-09T17:27:36.005Z,68.30
2018-02-09T17:30:03.629Z,68.75
2018-02-09T17:32:31.185Z,68.81
2018-02-09T17:34:58.741Z,69.06
2018-02-09T17:37:26.328Z,69.65
2018-02-09T17:39:54.016Z,68.96
2018-02-09T17:42:21.758Z,69.38
2018-02-09T17:44:49.478Z,69.84
2018-02-09T17:47:17.310Z,69.64
2018-02-09T17:49:44.882Z,69.47
2018-02-09T17:52:12.646Z,70.29
2018-02-09T17:54:40.213Z,70.29
2018-02-09T17:57:07.870Z,70.43
2018-02-09T17:59:35.496Z,71.67
2018-02-09T18:02:03.320Z,71.70
2018-02-09T18:04:30.937Z,72.07
2018-02-09T18:06:58.656Z,71.24
2018-02-09T18:09:26.391Z,71.80
2018-02-09T18:11:53.957Z,72.41
2018-02-09T18:14:21.545Z,72.17
2018-02-09T18:16:49.161Z,72.09
2018-02-09T18:19:16.748Z,72.98
2018-02-09T18:21:45.208Z,72.53
2018-02-09T18:24:12.853Z,73.54
2018-02-09T18:26:40.421Z,74.02
2018-02-09T18:29:07.993Z,74.07
2018-02-09T18:31:35.736Z,73.91
2018-02-09T18:34:03.550Z,74.09
2018-02-09T18:36:31.394Z,73.66
2018-02-09T18:38:59.017Z,73.90
2018-02-09T18:41:26.812Z,73.94
2018-02-09T18:43:54.384Z,74.17
2018-02-09T18:46:22.146Z,74.24
2018-02-09T18:48:49.741Z,74.02
2018-02-09T18:51:17.320Z,74.53
2018-02-09T18:53:44.903Z,74.85
2018-02-09T18:56:12.719Z,74.39
2018-02-09T18:58:40.289Z,74.54
2018-02-09T19:01:07.872Z,74.80
2018-02-09T19:03:35.556Z,74.47
2018-02-09T19:06:03.488Z,74.26
2018-02-09T19:08:31.053Z,74.32
2018-02-09T19:10:58.610Z,74.26
2018-02-09T19:13:26.609Z,75.05
2018-02-09T19:15:54.326Z,75.32
2018-02-09T19:18:21.888Z,75.26
2018-02-09T19:20:49.703Z,75.83
2018-02-09T19:23:17.405Z,75.47
2018-02-09T19:25:45.029Z,76.27
2018-02-09T19:28:12.602Z,76.09
2018-02-09T19:30:40.242Z,75.72
2018-02-09T19:33:07.891Z,75.72
2018-02-09T19:35:35.707Z,76.47
2018-02-09T19:38:03.277Z,76.03
2018-02-09T19:40:31.045Z,76.29
2018-02-09T19:42:58.648Z,76.59
2018-02-09T19:45:26.379Z,76.95
2018-02-09T19:47:53.997Z,76.70
2018-02-09T19:50:21.555Z,77.32
2018-02-09T19:52:49.471Z,77.18
2018-02-09T19:55:17.246Z,77.53
2018-02-09T19:57:44.818Z,76.97
2018-02-09T20:00:12.401Z,77.21
2018-02-09T20:02:40.200Z,77.29
2018-02-09T20:05:07.774Z,77.35
2018-02-09T20:07:35.637Z,77.46
2018-02-09T20:10:03.222Z,77.12
2018-02-09T20:12:30.959Z,76.44
2018-02-09T20:14:58.516Z,76.77
2018-02-09T20:17:26.154Z,77.57
2018-02-09T20:19:53.821Z,77.93
2018-02-09T20:22:21.640Z,77.73
2018-02-09T20:24:49.363Z,77.20
2018-02-09T20:27:16.972Z,77.91
2018-02-09T20:29:44.591Z,77.74
2018-02-09T20:32:12.281Z,77.81
2018-02-09T20:34:40.136Z,77.50
2018-02-09T20:37:07.711Z,77.55
2018-02-09T20:39:35.472Z,77.75
2018-02-09T20:42:03.042Z,77.76
2018-02-09T20:44:30.612Z,76.83
2018-02-09T20:46:58.425Z,76.86
2018-02-09T20:49:26.143Z,77.45
2018-02-09T20:51:53.963Z,77.77
2018-02-09T20:54:21.527Z,78.02
2018-02-09T20:56:49.085Z,78.49
2018-02-09T20:59:16.658Z,79.04
2018-02-09T21:01:44.313Z,79.52
2018-02-09T21:04:12.052Z,79.92
2018-02-09T21:06:39.610Z,79.98
2018-02-09T21:09:07.490Z,80.57
2018-02-09T21:11:35.097Z,80.41
2018-02-09T21:14:02.665Z,80.55
2018-02-09T21:16:30.232Z,80.24
2018-02-09T21:18:57.939Z,80.67
2018-02-09T21:21:25.526Z,80.74
2018-02-09T21:23:53.085Z,80.11
2018-02-09T21:26:20.887Z,79.67
2018-02-09T21:28:48.603Z,79.99
2018-02-09T21:31:16.158Z,79.94
2018-02-09T21:33:43.725Z,80.16
2018-02-09T21:36:11.274Z,80.23
2018-02-09T21:38:39.110Z,80.41
2018-02-09T21:41:06.826Z,80.43
2018-02-09T21:43:34.543Z,80.71
2018-02-09T21:46:02.273Z,81.00
2018-02-09T21:48:30.121Z,80.75
2018-02-09T21:50:57.738Z,80.94
2018-02-09T21:53:25.517Z,81.68
2018-02-09T21:55:53.091Z,81.80
2018-02-09T21:58:20.824Z,81.30
2018-02-09T22:00:48.425Z,81.16
2018-02-09T22:03:16.290Z,81.48
2018-02-09T22:05:43.921Z,82.11
2018-02-09T22:08:11.478Z,81.63
2018-02-09T22:10:39.204Z,81.86
2018-02-09T22:13:06.921Z,81.94
2018-02-09T22:15:34.781Z,82.03
2018-02-09T22:18:02.333Z,82.03
2018-02-09T22:20:30.008Z,81.64
2018-02-09T22:22:57.600Z,81.73
2018-02-09T22:25:25.245Z,82.28
2018-02-09T22:27:52.961Z,82.17
2018-02-09T22:30:20.604Z,81.96
2018-02-09T22:32:48.318Z,81.65
2018-02-09T22:35:15.897Z,82.00
2018-02-09T22:37:43.454Z,82.04
2018-02-09T22:40:11.070Z,81.82
2018-02-09T22:42:38.881Z,81.44
2018-02-09T22:45:06.595Z,81.32
2018-02-09T22:47:34.162Z,81.75
2018-02-09T22:50:01.913Z,82.26
2018-02-09T22:52:29.630Z,82.04
2018-02-09T22:54:57.186Z,81.59
2018-02-09T22:57:24.810Z,81.20
2018-02-09T22:59:52.403Z,81.10
2018-02-09T23:02:19.961Z,81.30
2018-02-09T23:04:47.527Z,81.42
2018-02-09T23:07:15.260Z,81.64
2018-02-09T23:09:43.078Z,82.97
2018-02-09T23:12:10.629Z,82.91
2018-02-09T23:14:38.377Z,82.36
2018-02-09T23:17:05.941Z,82.25
2018-02-09T23:19:33.505Z,82.26
2018-02-09T23:22:01.266Z,82.72
2018-02-09T23:24:28.817Z,82.66
2018-02-09T23:26:56.432Z,83.33
2018-02-09T23:29:24.221Z,83.54
2018-02-09T23:31:52.040Z,83.56
2018-02-09T23:34:19.615Z,83.32
2018-02-09T23:36:47.346Z,83.40
2018-02-09T23:39:14.905Z,83.66
2018-02-09T23:41:42.466Z,83.55
2018-02-09T23:44:10.328Z,83.28
2018-02-09T23:46:38.148Z,83.69
2018-02-09T23:49:05.697Z,83.44
2018-02-09T23:51:33.257Z,82.75
2018-02-09T23:54:01.101Z,81.99
2018-02-09T23:56:28.670Z,81.55
2018-02-09T23:58:56.224Z,81.67
